createdAt,value
2019-03-20T00:00:41.580Z,13.13
2019-03-20T00:03:11.339Z,10.83
2019-03-20T00:05:41.801Z,20.53
2019-03-20T00:08:11.475Z,14.13
2019-03-20T00:10:41.271Z,13.03
2019-03-20T00:13:11.082Z,17.73
2019-03-20T00:15:40.867Z,13.87
2019-03-20T00:18:10.635Z,16.70
2019-03-20T00:20:40.423Z,22.00
2019-03-20T00:23:10.191Z,21.67
2019-03-20T00:25:40.888Z,22.20
2019-03-20T00:28:10.660Z,17.73
2019-03-20T00:30:40.558Z,17.00
2019-03-20T00:33:10.324Z,18.60
2019-03-20T00:35:40.116Z,24.13
2019-03-20T00:38:09.970Z,16.83
2019-03-20T00:40:39.678Z,16.83
2019-03-20T00:43:09.515Z,17.20
2019-03-20T00:45:39.368Z,16.57
2019-03-20T00:48:09.164Z,17.00
2019-03-20T00:50:38.972Z,16.97
2019-03-20T00:53:08.683Z,24.30
2019-03-20T00:55:38.481Z,20.77
2019-03-20T00:58:08.223Z,19.70
2019-03-20T01:00:38.008Z,17.33
2019-03-20T01:03:07.713Z,19.23
2019-03-20T01:05:37.599Z,14.10
2019-03-20T01:08:07.440Z,19.73
2019-03-20T01:10:37.304Z,19.97
2019-03-20T01:13:07.089Z,22.33
2019-03-20T01:15:36.873Z,15.63
2019-03-20T01:18:06.595Z,16.00
2019-03-20T01:20:36.296Z,18.07
2019-03-20T01:23:08.119Z,19.17
2019-03-20T01:25:37.941Z,17.80
2019-03-20T01:28:07.713Z,17.47
2019-03-20T01:30:38.051Z,24.20
2019-03-20T01:33:09.268Z,18.83
2019-03-20T01:35:40.690Z,14.80
2019-03-20T01:38:10.571Z,20.07
2019-03-20T01:40:40.996Z,16.50
2019-03-20T01:43:11.998Z,19.13
2019-03-20T01:45:41.783Z,20.27
2019-03-20T01:48:11.555Z,17.87
2019-03-20T01:50:41.340Z,17.70
2019-03-20T01:53:11.172Z,17.20
2019-03-20T01:55:41.048Z,25.27
2019-03-20T01:58:10.987Z,21.53
2019-03-20T02:00:41.184Z,16.93
2019-03-20T02:03:10.994Z,21.57
2019-03-20T02:05:40.866Z,21.47
2019-03-20T02:08:10.713Z,17.93
2019-03-20T02:10:40.447Z,19.53
2019-03-20T02:13:11.085Z,17.90
2019-03-20T02:15:40.953Z,23.23
2019-03-20T02:18:10.690Z,26.37
2019-03-20T02:20:40.415Z,31.20
2019-03-20T02:23:10.208Z,24.50
2019-03-20T02:25:40.018Z,22.37
2019-03-20T02:28:09.725Z,22.00
2019-03-20T02:30:39.789Z,20.10
2019-03-20T02:33:09.518Z,20.43
2019-03-20T02:35:50.622Z,20.63
2019-03-20T02:38:10.737Z,22.90
2019-03-20T02:40:40.518Z,22.00
2019-03-20T02:43:12.591Z,27.30
2019-03-20T02:45:44.181Z,24.77
2019-03-20T02:48:13.896Z,16.57
2019-03-20T02:50:43.612Z,19.07
2019-03-20T02:53:13.340Z,17.03
2019-03-20T02:55:43.031Z,24.00
2019-03-20T02:58:12.748Z,17.20
2019-03-20T03:00:42.611Z,16.80
2019-03-20T03:03:12.323Z,17.03
2019-03-20T03:05:42.037Z,14.33
2019-03-20T03:08:11.838Z,21.27
2019-03-20T03:10:41.641Z,24.20
2019-03-20T03:13:11.426Z,18.60
2019-03-20T03:15:41.269Z,24.43
2019-03-20T03:18:11.029Z,17.87
2019-03-20T03:20:40.815Z,14.70
2019-03-20T03:23:10.539Z,16.17
2019-03-20T03:25:40.372Z,20.80
2019-03-20T03:28:10.085Z,18.47
2019-03-20T03:30:39.864Z,20.93
2019-03-20T03:33:09.664Z,16.67
2019-03-20T03:35:39.410Z,21.70
2019-03-20T03:38:09.204Z,21.43
2019-03-20T03:40:39.001Z,20.70
2019-03-20T03:43:08.699Z,16.20
2019-03-20T03:45:38.410Z,16.27
2019-03-20T03:48:08.235Z,17.00
2019-03-20T03:50:37.936Z,17.63
2019-03-20T03:53:07.644Z,21.83
2019-03-20T03:55:37.615Z,26.20
2019-03-20T03:58:07.473Z,16.20
2019-03-20T04:00:37.240Z,17.03
2019-03-20T04:03:07.039Z,27.70
2019-03-20T04:05:40.695Z,13.80
2019-03-20T04:08:11.008Z,17.73
2019-03-20T04:10:40.803Z,11.97
2019-03-20T04:13:10.675Z,18.33
2019-03-20T04:15:40.514Z,17.07
2019-03-20T04:18:10.378Z,23.93
2019-03-20T04:20:40.148Z,22.50
2019-03-20T04:23:09.893Z,20.70
2019-03-20T04:25:39.622Z,19.33
2019-03-20T04:28:09.371Z,16.97
2019-03-20T04:30:39.092Z,22.80
2019-03-20T04:33:08.884Z,23.13
2019-03-20T04:35:38.603Z,15.30
2019-03-20T04:38:08.322Z,23.77
2019-03-20T04:40:38.124Z,14.87
2019-03-20T04:43:07.914Z,13.80
2019-03-20T04:45:37.721Z,19.13
2019-03-20T04:48:07.492Z,20.00
2019-03-20T04:50:37.197Z,17.63
2019-03-20T04:53:06.898Z,20.13
2019-03-20T04:55:36.618Z,23.33
2019-03-20T04:58:06.313Z,16.90
2019-03-20T05:00:36.167Z,26.00
2019-03-20T05:03:05.948Z,15.37
2019-03-20T05:05:35.824Z,18.27
2019-03-20T05:08:05.623Z,20.07
2019-03-20T05:10:35.588Z,14.40
2019-03-20T05:13:05.381Z,18.23
2019-03-20T05:15:35.196Z,24.27
2019-03-20T05:18:05.108Z,13.33
2019-03-20T05:20:34.968Z,16.17
2019-03-20T05:23:04.869Z,16.27
2019-03-20T05:25:34.597Z,17.37
2019-03-20T05:28:04.401Z,19.97
2019-03-20T05:30:34.208Z,16.97
2019-03-20T05:33:04.157Z,14.00
2019-03-20T05:35:33.996Z,18.80
2019-03-20T05:38:03.782Z,14.10
2019-03-20T05:40:33.936Z,19.77
2019-03-20T05:43:03.672Z,13.60
2019-03-20T05:45:33.753Z,19.30
2019-03-20T05:48:03.546Z,12.70
2019-03-20T05:50:33.256Z,16.63
2019-03-20T05:53:03.049Z,13.67
2019-03-20T05:55:32.769Z,11.67
2019-03-20T05:58:02.545Z,19.43
2019-03-20T06:00:33.992Z,15.63
2019-03-20T06:03:04.112Z,9.53
2019-03-20T06:05:33.936Z,20.67
2019-03-20T06:08:03.752Z,22.50
2019-03-20T06:10:33.565Z,23.67
2019-03-20T06:13:22.760Z,21.87
2019-03-20T06:15:52.465Z,15.00
2019-03-20T06:18:22.246Z,11.97
2019-03-20T06:20:52.003Z,14.30
2019-03-20T06:23:21.700Z,18.90
2019-03-20T06:25:51.690Z,18.27
2019-03-20T06:28:22.481Z,17.83
2019-03-20T06:30:52.308Z,12.20
2019-03-20T06:33:22.148Z,16.67
2019-03-20T06:35:52.068Z,10.70
2019-03-20T06:38:56.514Z,10.77
2019-03-20T06:41:30.576Z,14.07
2019-03-20T06:44:00.283Z,12.73
2019-03-20T06:46:30.009Z,11.83
2019-03-20T06:48:59.823Z,14.37
2019-03-20T06:51:29.520Z,15.35
2019-03-20T06:53:59.344Z,18.73
2019-03-20T06:56:29.248Z,22.60
2019-03-20T06:59:49.710Z,16.87
2019-03-20T07:02:21.073Z,12.30
2019-03-20T07:05:56.318Z,14.28
2019-03-20T07:08:28.733Z,11.85
2019-03-20T07:11:10.286Z,19.45
2019-03-20T07:13:40.236Z,11.78
2019-03-20T07:16:10.260Z,11.65
2019-03-20T07:18:40.248Z,14.33
2019-03-20T07:21:09.955Z,13.18
2019-03-20T07:23:39.750Z,10.65
2019-03-20T07:26:09.533Z,11.43
2019-03-20T07:28:39.352Z,10.90
2019-03-20T07:31:15.456Z,9.90
2019-03-20T07:33:40.543Z,11.53
2019-03-20T07:36:10.792Z,11.43
2019-03-20T07:38:40.784Z,14.15
2019-03-20T07:41:10.640Z,11.00
2019-03-20T07:43:40.495Z,13.72
2019-03-20T07:46:10.417Z,13.48
2019-03-20T07:48:40.803Z,9.25
2019-03-20T07:51:10.761Z,11.18
2019-03-20T07:53:40.464Z,10.28
2019-03-20T07:56:10.271Z,8.28
2019-03-20T07:58:40.325Z,13.08
2019-03-20T08:01:10.036Z,11.75
2019-03-20T08:03:39.786Z,9.58
2019-03-20T08:06:09.586Z,11.80
2019-03-20T08:08:39.395Z,10.50
2019-03-20T08:11:09.193Z,12.35
2019-03-20T08:13:38.895Z,8.43
2019-03-20T08:16:08.603Z,11.40
2019-03-20T08:18:38.428Z,7.47
2019-03-20T08:21:08.227Z,12.78
2019-03-20T08:23:38.027Z,10.18
2019-03-20T08:26:07.887Z,7.62
2019-03-20T08:28:37.674Z,11.90
2019-03-20T08:31:07.607Z,9.78
2019-03-20T08:33:37.369Z,10.43
2019-03-20T08:36:07.214Z,9.68
2019-03-20T08:38:36.940Z,15.60
2019-03-20T08:41:06.824Z,11.75
2019-03-20T08:43:38.208Z,13.43
2019-03-20T08:46:07.939Z,9.40
2019-03-20T08:48:37.815Z,13.30
2019-03-20T08:51:08.523Z,11.83
2019-03-20T08:53:39.384Z,9.65
2019-03-20T08:56:09.152Z,10.15
2019-03-20T08:58:38.880Z,11.68
2019-03-20T09:01:08.629Z,12.28
2019-03-20T09:03:38.417Z,12.40
2019-03-20T09:06:08.212Z,10.95
2019-03-20T09:08:38.079Z,12.55
2019-03-20T09:11:07.929Z,14.13
2019-03-20T09:13:37.656Z,13.68
2019-03-20T09:16:08.143Z,16.37
2019-03-20T09:18:37.929Z,13.68
2019-03-20T09:21:07.864Z,17.92
2019-03-20T09:23:37.564Z,18.07
2019-03-20T09:26:07.394Z,10.63
2019-03-20T09:28:37.114Z,11.38
2019-03-20T09:31:06.930Z,17.90
2019-03-20T09:33:36.633Z,16.00
2019-03-20T09:36:06.411Z,20.90
2019-03-20T09:38:43.305Z,17.30
2019-03-20T09:41:07.626Z,21.73
2019-03-20T09:43:37.341Z,18.15
2019-03-20T09:46:07.076Z,16.48
2019-03-20T09:48:36.924Z,16.87
2019-03-20T09:51:06.684Z,14.43
2019-03-20T09:53:36.388Z,15.20
2019-03-20T09:56:06.200Z,16.15
2019-03-20T09:58:35.995Z,16.57
2019-03-20T10:01:05.934Z,18.45
2019-03-20T10:03:35.760Z,21.02
2019-03-20T10:06:05.573Z,19.70
2019-03-20T10:08:35.440Z,17.20
2019-03-20T10:11:05.313Z,14.95
2019-03-20T10:13:35.104Z,15.45
2019-03-20T10:16:04.999Z,18.15
2019-03-20T10:18:34.795Z,16.67
2019-03-20T10:21:04.677Z,13.28
2019-03-20T10:23:34.456Z,16.60
2019-03-20T10:26:04.312Z,13.90
2019-03-20T10:28:34.028Z,10.13
2019-03-20T10:31:03.997Z,11.48
2019-03-20T10:33:33.820Z,11.90
2019-03-20T10:36:03.579Z,12.85
2019-03-20T10:38:33.368Z,14.38
2019-03-20T10:41:03.184Z,11.48
2019-03-20T10:43:32.892Z,12.98
2019-03-20T10:46:02.677Z,8.48
2019-03-20T10:48:32.473Z,11.35
2019-03-20T10:51:02.265Z,9.20
2019-03-20T10:53:31.969Z,10.80
2019-03-20T10:56:01.689Z,12.78
2019-03-20T10:58:31.508Z,9.90
2019-03-20T11:01:01.325Z,11.88
2019-03-20T11:03:32.136Z,10.18
2019-03-20T11:06:03.044Z,11.75
2019-03-20T11:08:33.862Z,10.18
2019-03-20T11:11:03.719Z,10.43
2019-03-20T11:13:33.495Z,5.97
2019-03-20T11:16:03.193Z,6.05
2019-03-20T11:18:34.887Z,8.08
2019-03-20T11:21:04.814Z,7.90
2019-03-20T11:23:34.529Z,10.13
2019-03-20T11:26:04.407Z,10.25
2019-03-20T11:28:34.124Z,7.95
2019-03-20T11:31:03.958Z,7.70
2019-03-20T11:33:33.764Z,6.65
2019-03-20T11:36:03.674Z,9.58
2019-03-20T11:38:33.372Z,5.30
2019-03-20T11:41:03.140Z,6.87
2019-03-20T11:43:32.848Z,9.10
2019-03-20T11:46:02.560Z,7.47
2019-03-20T11:48:33.387Z,9.93
2019-03-20T11:51:04.391Z,6.87
2019-03-20T11:53:34.188Z,7.62
2019-03-20T11:56:04.082Z,7.50
2019-03-20T11:58:33.811Z,9.00
2019-03-20T12:01:03.599Z,7.80
2019-03-20T12:03:33.319Z,7.72
2019-03-20T12:06:03.111Z,6.37
2019-03-20T12:08:32.828Z,6.97
2019-03-20T12:11:02.976Z,8.25
2019-03-20T12:13:32.769Z,6.30
2019-03-20T12:16:02.627Z,7.00
2019-03-20T12:18:32.330Z,6.35
2019-03-20T12:21:02.024Z,8.80
2019-03-20T12:23:33.683Z,6.20
2019-03-20T12:26:03.381Z,5.78
2019-03-20T12:28:33.217Z,6.37
2019-03-20T12:31:02.922Z,6.05
2019-03-20T12:33:32.683Z,8.00
2019-03-20T12:36:02.751Z,6.00
2019-03-20T12:38:32.549Z,7.33
2019-03-20T12:41:02.284Z,5.15
2019-03-20T12:43:32.097Z,4.35
2019-03-20T12:46:01.791Z,6.05
2019-03-20T12:48:31.516Z,4.95
2019-03-20T12:51:01.295Z,5.70
2019-03-20T12:53:31.901Z,5.50
2019-03-20T12:56:01.604Z,4.90
2019-03-20T12:58:31.388Z,8.20
2019-03-20T13:01:01.253Z,6.22
2019-03-20T13:03:31.033Z,7.83
2019-03-20T13:06:00.788Z,6.35
2019-03-20T13:08:30.513Z,6.65
2019-03-20T13:11:00.232Z,5.80
2019-03-20T13:13:29.916Z,5.47
2019-03-20T13:15:59.754Z,6.85
2019-03-20T13:18:29.924Z,7.70
2019-03-20T13:20:59.718Z,8.63
2019-03-20T13:23:31.156Z,5.83
2019-03-20T13:26:01.034Z,5.30
2019-03-20T13:28:32.010Z,6.22
2019-03-20T13:31:05.192Z,6.55
2019-03-20T13:33:34.934Z,5.72
2019-03-20T13:36:06.192Z,7.30
2019-03-20T13:38:36.283Z,8.35
2019-03-20T13:41:06.093Z,10.15
2019-03-20T13:43:36.803Z,6.20
2019-03-20T13:46:06.593Z,7.37
2019-03-20T13:48:36.357Z,6.03
2019-03-20T13:51:06.150Z,9.55
2019-03-20T13:53:35.852Z,7.28
2019-03-20T13:56:05.647Z,5.15
2019-03-20T13:58:35.423Z,5.15
2019-03-20T14:01:05.343Z,8.43
2019-03-20T14:03:35.037Z,8.28
2019-03-20T14:06:05.164Z,6.55
2019-03-20T14:08:34.880Z,8.55
2019-03-20T14:11:04.760Z,8.98
2019-03-20T14:13:34.473Z,10.00
2019-03-20T14:16:04.390Z,8.35
2019-03-20T14:18:34.100Z,7.30
2019-03-20T14:21:04.940Z,6.30
2019-03-20T14:23:34.717Z,7.95
2019-03-20T14:26:04.577Z,7.62
2019-03-20T14:28:34.301Z,7.15
2019-03-20T14:31:04.165Z,6.60
2019-03-20T14:33:33.931Z,7.80
2019-03-20T14:36:03.834Z,5.75
2019-03-20T14:38:33.538Z,10.40
2019-03-20T14:41:03.390Z,7.30
2019-03-20T14:43:33.209Z,8.63
2019-03-20T14:46:03.030Z,5.87
2019-03-20T14:48:32.741Z,5.90
2019-03-20T14:51:02.518Z,7.05
2019-03-20T14:53:32.288Z,9.25
2019-03-20T14:56:02.024Z,6.05
2019-03-20T14:58:31.744Z,6.78
2019-03-20T15:01:02.504Z,5.80
2019-03-20T15:03:32.284Z,7.80
2019-03-20T15:06:02.010Z,8.03
2019-03-20T15:08:31.728Z,7.80
2019-03-20T15:11:01.541Z,8.93
2019-03-20T15:13:31.304Z,6.60
2019-03-20T15:16:05.172Z,5.90
2019-03-20T15:18:34.960Z,9.50
2019-03-20T15:21:05.828Z,7.55
2019-03-20T15:23:35.596Z,8.90
2019-03-20T15:26:05.676Z,8.88
2019-03-20T15:28:35.508Z,11.43
2019-03-20T15:31:05.353Z,10.65
2019-03-20T15:33:35.153Z,9.05
2019-03-20T15:36:05.025Z,7.92
2019-03-20T15:38:35.908Z,6.28
2019-03-20T15:41:05.776Z,7.80
2019-03-20T15:43:35.503Z,12.18
2019-03-20T15:46:05.335Z,8.05
2019-03-20T15:48:35.158Z,11.93
2019-03-20T15:51:06.119Z,6.50
2019-03-20T15:53:35.931Z,9.08
2019-03-20T15:56:05.917Z,7.45
2019-03-20T15:58:35.687Z,9.38
2019-03-20T16:01:05.549Z,7.00
2019-03-20T16:03:35.620Z,7.90
2019-03-20T16:06:05.518Z,19.12
2019-03-20T16:08:35.320Z,8.10
2019-03-20T16:11:06.846Z,12.58
2019-03-20T16:13:36.866Z,7.17
2019-03-20T16:16:06.728Z,7.20
2019-03-20T16:18:36.474Z,8.83
2019-03-20T16:21:06.244Z,7.25
2019-03-20T16:23:35.972Z,10.23
2019-03-20T16:26:05.853Z,8.35
2019-03-20T16:28:35.582Z,8.63
2019-03-20T16:31:05.459Z,8.28
2019-03-20T16:33:35.172Z,5.87
2019-03-20T16:36:05.049Z,9.30
2019-03-20T16:38:35.184Z,8.93
2019-03-20T16:41:05.033Z,7.70
2019-03-20T16:43:34.832Z,15.40
2019-03-20T16:46:04.713Z,7.95
2019-03-20T16:48:34.444Z,8.18
2019-03-20T16:51:04.826Z,10.40
2019-03-20T16:53:34.545Z,8.63
2019-03-20T16:56:04.315Z,6.53
2019-03-20T16:58:34.061Z,7.00
2019-03-20T17:01:03.960Z,8.60
2019-03-20T17:03:33.676Z,10.45
2019-03-20T17:06:03.485Z,9.13
2019-03-20T17:08:33.199Z,8.88
2019-03-20T17:11:03.019Z,8.43
2019-03-20T17:13:32.731Z,5.85
2019-03-20T17:16:02.519Z,7.22
2019-03-20T17:18:32.233Z,6.42
2019-03-20T17:21:02.004Z,10.28
2019-03-20T17:23:31.793Z,8.13
2019-03-20T17:26:02.474Z,9.70
2019-03-20T17:28:32.184Z,9.23
2019-03-20T17:31:01.888Z,11.40
2019-03-20T17:33:31.636Z,14.07
2019-03-20T17:36:01.357Z,11.12
2019-03-20T17:38:31.100Z,20.77
2019-03-20T17:41:00.883Z,12.68
2019-03-20T17:43:30.604Z,10.68
2019-03-20T17:46:00.405Z,9.78
2019-03-20T17:48:30.140Z,9.33
2019-03-20T17:50:59.986Z,9.70
2019-03-20T17:53:29.760Z,13.80
2019-03-20T17:55:59.480Z,9.68
2019-03-20T17:58:29.304Z,11.20
2019-03-20T18:00:59.103Z,9.30
2019-03-20T18:03:28.901Z,9.85
2019-03-20T18:05:58.628Z,12.73
2019-03-20T18:08:28.412Z,9.55
2019-03-20T18:10:58.224Z,10.85
2019-03-20T18:13:27.928Z,9.63
2019-03-20T18:15:57.669Z,12.43
2019-03-20T18:18:28.400Z,14.40
2019-03-20T18:20:58.123Z,10.70
2019-03-20T18:23:27.921Z,11.22
2019-03-20T18:25:57.691Z,12.70
2019-03-20T18:28:30.480Z,11.75
2019-03-20T18:31:00.220Z,13.98
2019-03-20T18:33:30.005Z,8.98
2019-03-20T18:36:00.258Z,11.40
2019-03-20T18:38:29.983Z,11.35
2019-03-20T18:40:59.799Z,15.93
2019-03-20T18:43:29.569Z,10.63
2019-03-20T18:45:59.289Z,12.23
2019-03-20T18:48:28.992Z,12.93
2019-03-20T18:50:58.704Z,17.50
2019-03-20T18:53:28.486Z,13.08
2019-03-20T18:55:58.292Z,12.10
2019-03-20T18:58:28.010Z,15.35
2019-03-20T19:00:57.806Z,15.63
2019-03-20T19:03:27.867Z,14.58
2019-03-20T19:06:01.086Z,13.70
2019-03-20T19:08:30.941Z,14.20
2019-03-20T19:11:00.816Z,12.03
2019-03-20T19:13:30.687Z,18.23
2019-03-20T19:16:00.468Z,13.48
2019-03-20T19:18:30.322Z,21.73
2019-03-20T19:21:00.197Z,14.75
2019-03-20T19:23:29.910Z,12.13
2019-03-20T19:25:59.721Z,14.93
2019-03-20T19:28:29.582Z,13.43
2019-03-20T19:31:00.763Z,12.75
2019-03-20T19:33:30.617Z,14.18
2019-03-20T19:36:00.457Z,15.68
2019-03-20T19:38:34.943Z,17.57
2019-03-20T19:41:01.580Z,17.50
2019-03-20T19:43:31.332Z,10.90
2019-03-20T19:46:01.040Z,17.55
2019-03-20T19:48:30.782Z,16.45
2019-03-20T19:51:00.551Z,14.87
2019-03-20T19:53:32.427Z,15.03
2019-03-20T19:56:02.270Z,13.90
2019-03-20T19:58:32.183Z,18.70
2019-03-20T20:01:01.956Z,13.32
2019-03-20T20:03:31.692Z,13.43
2019-03-20T20:06:01.510Z,16.90
2019-03-20T20:08:31.251Z,12.58
2019-03-20T20:11:00.980Z,14.90
2019-03-20T20:13:30.852Z,19.92
2019-03-20T20:16:00.646Z,20.10
2019-03-20T20:18:30.373Z,18.30
2019-03-20T20:21:01.075Z,13.00
2019-03-20T20:23:30.851Z,19.95
2019-03-20T20:26:00.640Z,17.02
2019-03-20T20:28:30.385Z,17.27
2019-03-20T20:31:00.228Z,18.95
2019-03-20T20:33:30.069Z,15.38
2019-03-20T20:35:59.772Z,19.07
2019-03-20T20:38:29.502Z,18.43
2019-03-20T20:40:59.292Z,17.75
2019-03-20T20:43:29.037Z,23.90
2019-03-20T20:45:58.824Z,19.48
2019-03-20T20:48:28.553Z,20.82
2019-03-20T20:50:58.267Z,19.70
2019-03-20T20:53:28.003Z,20.10
2019-03-20T20:56:08.278Z,16.23
2019-03-20T20:58:38.045Z,17.20
2019-03-20T21:01:07.832Z,16.40
2019-03-20T21:03:37.596Z,16.40
2019-03-20T21:06:07.304Z,19.70
2019-03-20T21:08:37.023Z,17.30
2019-03-20T21:11:07.069Z,13.93
2019-03-20T21:13:36.803Z,15.25
2019-03-20T21:16:10.420Z,18.65
2019-03-20T21:19:17.860Z,17.92
2019-03-20T21:22:15.396Z,17.70
2019-03-20T21:24:45.661Z,18.82
2019-03-20T21:28:03.265Z,16.97
2019-03-20T21:31:21.305Z,18.27
2019-03-20T21:34:22.827Z,22.48
2019-03-20T21:37:41.852Z,18.05
2019-03-20T21:40:13.941Z,18.23
2019-03-20T21:43:19.852Z,21.35
2019-03-20T21:46:28.156Z,19.77
2019-03-20T21:48:58.516Z,17.05
2019-03-20T21:51:28.824Z,20.55
2019-03-20T21:54:37.008Z,19.07
2019-03-20T21:57:59.352Z,20.82
2019-03-20T22:01:05.356Z,21.82
2019-03-20T22:03:35.678Z,21.82
2019-03-20T22:06:45.344Z,22.30
2019-03-20T22:10:15.193Z,21.00
2019-03-20T22:13:05.024Z,22.22
2019-03-20T22:16:02.851Z,24.87
2019-03-20T22:19:12.950Z,16.70
2019-03-20T22:22:16.556Z,22.80
2019-03-20T22:25:55.625Z,20.08
2019-03-20T22:29:08.948Z,20.90
2019-03-20T22:31:42.075Z,24.40
2019-03-20T22:34:36.072Z,24.32
2019-03-20T22:37:06.352Z,19.48
2019-03-20T22:40:19.280Z,25.70
2019-03-20T22:42:59.964Z,23.77
2019-03-20T22:46:21.898Z,23.55
2019-03-20T22:49:34.333Z,24.43
2019-03-20T22:52:41.361Z,18.15
2019-03-20T22:55:36.158Z,22.42
2019-03-20T22:58:20.651Z,17.52
2019-03-20T23:00:51.447Z,19.23
2019-03-20T23:03:30.604Z,24.65
2019-03-20T23:06:00.849Z,25.05
2019-03-20T23:08:31.237Z,22.63
2019-03-20T23:11:01.549Z,25.43
2019-03-20T23:13:41.132Z,29.20
2019-03-20T23:16:04.458Z,28.10
2019-03-20T23:18:34.738Z,29.10
2019-03-20T23:21:05.438Z,23.18
2019-03-20T23:23:36.874Z,30.00
2019-03-20T23:26:07.499Z,23.27
2019-03-20T23:28:38.068Z,25.05
2019-03-20T23:31:09.503Z,25.50
2019-03-20T23:33:39.804Z,25.45
2019-03-20T23:36:10.150Z,24.20
2019-03-20T23:38:40.414Z,27.87
2019-03-20T23:41:10.673Z,21.40
2019-03-20T23:43:52.148Z,33.08
2019-03-20T23:46:13.024Z,24.83
2019-03-20T23:48:58.940Z,27.98
2019-03-20T23:51:29.415Z,29.20
2019-03-20T23:53:59.824Z,33.53
2019-03-20T23:56:31.943Z,27.80
2019-03-20T23:59:02.295Z,29.77
